sensor_id;sensor_type;location;lat;lon;timestamp;P1;durP1;ratioP1;P2;durP2;ratioP2
11139;SDS011;5624;49.388;11.350;2023-05-20T00:00:44;4.37;;;3.40;;
11139;SDS011;5624;49.388;11.350;2023-05-20T00:03:13;5.60;;;3.77;;
11139;SDS011;5624;49.388;11.350;2023-05-20T00:05:39;4.50;;;3.70;;
11139;SDS011;5624;49.388;11.350;2023-05-20T00:08:05;7.07;;;3.50;;
11139;SDS011;5624;49.388;11.350;2023-05-20T00:10:33;5.10;;;3.57;;
11139;SDS011;5624;49.388;11.350;2023-05-20T00:12:59;4.63;;;3.70;;
11139;SDS011;5624;49.388;11.350;2023-05-20T00:15:25;6.80;;;4.10;;
11139;SDS011;5624;49.388;11.350;2023-05-20T00:17:50;5.33;;;3.87;;
11139;SDS011;5624;49.388;11.350;2023-05-20T00:20:16;6.03;;;4.03;;
11139;SDS011;5624;49.388;11.350;2023-05-20T00:22:42;4.37;;;3.40;;
11139;SDS011;5624;49.388;11.350;2023-05-20T00:25:07;6.10;;;3.90;;
11139;SDS011;5624;49.388;11.350;2023-05-20T00:27:33;6.33;;;3.90;;
11139;SDS011;5624;49.388;11.350;2023-05-20T00:29:59;5.33;;;3.67;;
11139;SDS011;5624;49.388;11.350;2023-05-20T00:32:24;6.03;;;3.93;;
11139;SDS011;5624;49.388;11.350;2023-05-20T00:34:57;5.47;;;4.27;;
11139;SDS011;5624;49.388;11.350;2023-05-20T00:37:23;5.43;;;4.37;;
11139;SDS011;5624;49.388;11.350;2023-05-20T00:39:49;6.47;;;4.20;;
11139;SDS011;5624;49.388;11.350;2023-05-20T00:44:46;5.90;;;4.03;;
11139;SDS011;5624;49.388;11.350;2023-05-20T00:47:12;7.77;;;4.07;;
11139;SDS011;5624;49.388;11.350;2023-05-20T00:49:38;7.10;;;4.57;;
11139;SDS011;5624;49.388;11.350;2023-05-20T00:52:04;5.67;;;4.37;;
11139;SDS011;5624;49.388;11.350;2023-05-20T00:54:31;6.47;;;4.63;;
11139;SDS011;5624;49.388;11.350;2023-05-20T00:56:57;5.63;;;5.00;;
11139;SDS011;5624;49.388;11.350;2023-05-20T00:59:23;5.63;;;4.17;;
11139;SDS011;5624;49.388;11.350;2023-05-20T01:01:51;6.37;;;4.60;;
11139;SDS011;5624;49.388;11.350;2023-05-20T01:04:17;5.47;;;4.90;;
11139;SDS011;5624;49.388;11.350;2023-05-20T01:06:42;7.13;;;5.00;;
11139;SDS011;5624;49.388;11.350;2023-05-20T01:09:10;5.37;;;4.33;;
11139;SDS011;5624;49.388;11.350;2023-05-20T01:11:43;7.40;;;5.03;;
11139;SDS011;5624;49.388;11.350;2023-05-20T01:14:17;6.73;;;4.83;;
11139;SDS011;5624;49.388;11.350;2023-05-20T01:16:44;7.70;;;5.27;;
11139;SDS011;5624;49.388;11.350;2023-05-20T01:19:25;7.37;;;5.37;;
11139;SDS011;5624;49.388;11.350;2023-05-20T01:21:57;7.77;;;5.67;;
11139;SDS011;5624;49.388;11.350;2023-05-20T01:24:27;6.53;;;4.80;;
11139;SDS011;5624;49.388;11.350;2023-05-20T01:26:52;7.13;;;5.30;;
11139;SDS011;5624;49.388;11.350;2023-05-20T01:29:18;6.17;;;4.37;;
11139;SDS011;5624;49.388;11.350;2023-05-20T01:31:44;7.43;;;4.90;;
11139;SDS011;5624;49.388;11.350;2023-05-20T01:34:11;5.83;;;4.70;;
11139;SDS011;5624;49.388;11.350;2023-05-20T01:36:37;6.90;;;4.90;;
11139;SDS011;5624;49.388;11.350;2023-05-20T01:39:04;7.37;;;5.23;;
11139;SDS011;5624;49.388;11.350;2023-05-20T01:41:30;6.50;;;4.63;;
11139;SDS011;5624;49.388;11.350;2023-05-20T01:43:58;6.63;;;4.67;;
11139;SDS011;5624;49.388;11.350;2023-05-20T01:46:24;7.53;;;4.73;;
11139;SDS011;5624;49.388;11.350;2023-05-20T01:48:50;7.27;;;4.70;;
11139;SDS011;5624;49.388;11.350;2023-05-20T01:51:15;7.37;;;5.23;;
11139;SDS011;5624;49.388;11.350;2023-05-20T01:53:41;6.03;;;4.73;;
11139;SDS011;5624;49.388;11.350;2023-05-20T01:56:07;8.53;;;5.53;;
11139;SDS011;5624;49.388;11.350;2023-05-20T01:58:33;8.73;;;5.03;;
11139;SDS011;5624;49.388;11.350;2023-05-20T02:00:58;8.23;;;5.80;;
11139;SDS011;5624;49.388;11.350;2023-05-20T02:03:24;9.07;;;5.47;;
11139;SDS011;5624;49.388;11.350;2023-05-20T02:05:50;6.53;;;5.10;;
11139;SDS011;5624;49.388;11.350;2023-05-20T02:08:15;8.10;;;5.33;;
11139;SDS011;5624;49.388;11.350;2023-05-20T02:10:41;7.13;;;5.33;;
11139;SDS011;5624;49.388;11.350;2023-05-20T02:13:07;9.07;;;5.77;;
11139;SDS011;5624;49.388;11.350;2023-05-20T02:15:32;8.33;;;5.83;;
11139;SDS011;5624;49.388;11.350;2023-05-20T02:17:58;6.63;;;5.23;;
11139;SDS011;5624;49.388;11.350;2023-05-20T02:20:23;7.47;;;5.70;;
11139;SDS011;5624;49.388;11.350;2023-05-20T02:22:49;8.17;;;6.07;;
11139;SDS011;5624;49.388;11.350;2023-05-20T02:25:14;9.30;;;5.63;;
11139;SDS011;5624;49.388;11.350;2023-05-20T02:27:40;8.97;;;6.20;;
11139;SDS011;5624;49.388;11.350;2023-05-20T02:30:06;7.37;;;6.03;;
11139;SDS011;5624;49.388;11.350;2023-05-20T02:32:32;8.30;;;6.37;;
11139;SDS011;5624;49.388;11.350;2023-05-20T02:34:57;7.90;;;6.00;;
11139;SDS011;5624;49.388;11.350;2023-05-20T02:37:23;8.17;;;6.43;;
11139;SDS011;5624;49.388;11.350;2023-05-20T02:39:49;7.80;;;6.30;;
11139;SDS011;5624;49.388;11.350;2023-05-20T02:42:14;7.53;;;6.10;;
11139;SDS011;5624;49.388;11.350;2023-05-20T02:44:40;10.00;;;6.90;;
11139;SDS011;5624;49.388;11.350;2023-05-20T02:47:05;9.10;;;6.40;;
11139;SDS011;5624;49.388;11.350;2023-05-20T02:49:31;8.47;;;6.13;;
11139;SDS011;5624;49.388;11.350;2023-05-20T02:51:56;8.80;;;6.90;;
11139;SDS011;5624;49.388;11.350;2023-05-20T02:54:22;9.20;;;7.13;;
11139;SDS011;5624;49.388;11.350;2023-05-20T02:56:47;9.33;;;6.40;;
11139;SDS011;5624;49.388;11.350;2023-05-20T02:59:13;8.00;;;6.77;;
11139;SDS011;5624;49.388;11.350;2023-05-20T03:01:39;8.30;;;6.37;;
11139;SDS011;5624;49.388;11.350;2023-05-20T03:04:05;9.13;;;6.90;;
11139;SDS011;5624;49.388;11.350;2023-05-20T03:06:30;8.63;;;6.70;;
11139;SDS011;5624;49.388;11.350;2023-05-20T03:08:56;9.77;;;7.10;;
11139;SDS011;5624;49.388;11.350;2023-05-20T03:11:22;9.83;;;7.27;;
11139;SDS011;5624;49.388;11.350;2023-05-20T03:13:48;10.03;;;6.80;;
11139;SDS011;5624;49.388;11.350;2023-05-20T03:16:13;10.30;;;7.20;;
11139;SDS011;5624;49.388;11.350;2023-05-20T03:18:40;8.67;;;6.77;;
11139;SDS011;5624;49.388;11.350;2023-05-20T03:21:06;8.93;;;7.33;;
11139;SDS011;5624;49.388;11.350;2023-05-20T03:23:32;8.90;;;6.40;;
11139;SDS011;5624;49.388;11.350;2023-05-20T03:25:58;9.67;;;7.40;;
11139;SDS011;5624;49.388;11.350;2023-05-20T03:28:23;10.23;;;7.70;;
11139;SDS011;5624;49.388;11.350;2023-05-20T03:30:49;9.53;;;7.37;;
11139;SDS011;5624;49.388;11.350;2023-05-20T03:33:15;10.73;;;6.70;;
11139;SDS011;5624;49.388;11.350;2023-05-20T03:35:40;9.90;;;6.77;;
11139;SDS011;5624;49.388;11.350;2023-05-20T03:38:06;10.60;;;6.80;;
11139;SDS011;5624;49.388;11.350;2023-05-20T03:40:31;10.00;;;7.50;;
11139;SDS011;5624;49.388;11.350;2023-05-20T03:42:57;11.60;;;8.30;;
11139;SDS011;5624;49.388;11.350;2023-05-20T03:45:23;10.03;;;7.97;;
11139;SDS011;5624;49.388;11.350;2023-05-20T03:47:48;11.90;;;7.63;;
11139;SDS011;5624;49.388;11.350;2023-05-20T03:50:14;12.37;;;7.67;;
11139;SDS011;5624;49.388;11.350;2023-05-20T03:52:39;12.97;;;7.73;;
11139;SDS011;5624;49.388;11.350;2023-05-20T03:55:05;10.97;;;8.20;;
11139;SDS011;5624;49.388;11.350;2023-05-20T03:57:31;10.23;;;7.87;;
11139;SDS011;5624;49.388;11.350;2023-05-20T03:59:57;12.83;;;8.13;;
11139;SDS011;5624;49.388;11.350;2023-05-20T04:02:23;11.90;;;8.53;;
11139;SDS011;5624;49.388;11.350;2023-05-20T04:04:49;10.83;;;8.23;;
11139;SDS011;5624;49.388;11.350;2023-05-20T04:07:16;13.10;;;8.13;;
11139;SDS011;5624;49.388;11.350;2023-05-20T04:09:42;10.53;;;8.43;;
11139;SDS011;5624;49.388;11.350;2023-05-20T04:12:08;12.27;;;7.83;;
11139;SDS011;5624;49.388;11.350;2023-05-20T04:14:33;11.23;;;8.33;;
11139;SDS011;5624;49.388;11.350;2023-05-20T04:17:01;10.87;;;8.33;;
11139;SDS011;5624;49.388;11.350;2023-05-20T04:19:27;10.97;;;8.77;;
11139;SDS011;5624;49.388;11.350;2023-05-20T04:21:53;11.47;;;9.17;;
11139;SDS011;5624;49.388;11.350;2023-05-20T04:24:19;11.30;;;8.23;;
11139;SDS011;5624;49.388;11.350;2023-05-20T04:26:49;10.50;;;8.17;;
11139;SDS011;5624;49.388;11.350;2023-05-20T04:29:15;10.03;;;8.03;;
11139;SDS011;5624;49.388;11.350;2023-05-20T04:31:42;12.20;;;8.57;;
11139;SDS011;5624;49.388;11.350;2023-05-20T04:34:10;10.87;;;8.17;;
11139;SDS011;5624;49.388;11.350;2023-05-20T04:36:36;11.70;;;8.60;;
11139;SDS011;5624;49.388;11.350;2023-05-20T04:39:02;10.77;;;7.87;;
11139;SDS011;5624;49.388;11.350;2023-05-20T04:41:29;11.90;;;8.83;;
11139;SDS011;5624;49.388;11.350;2023-05-20T04:43:55;10.87;;;8.40;;
11139;SDS011;5624;49.388;11.350;2023-05-20T04:46:24;9.80;;;8.07;;
11139;SDS011;5624;49.388;11.350;2023-05-20T04:48:50;11.90;;;8.23;;
11139;SDS011;5624;49.388;11.350;2023-05-20T04:51:16;10.37;;;8.07;;
11139;SDS011;5624;49.388;11.350;2023-05-20T04:53:42;11.63;;;8.10;;
11139;SDS011;5624;49.388;11.350;2023-05-20T04:56:09;15.63;;;9.00;;
11139;SDS011;5624;49.388;11.350;2023-05-20T04:58:34;9.20;;;8.17;;
11139;SDS011;5624;49.388;11.350;2023-05-20T05:01:00;9.47;;;7.97;;
11139;SDS011;5624;49.388;11.350;2023-05-20T05:03:26;13.20;;;9.37;;
11139;SDS011;5624;49.388;11.350;2023-05-20T05:05:56;10.40;;;8.53;;
11139;SDS011;5624;49.388;11.350;2023-05-20T05:08:24;12.00;;;9.67;;
11139;SDS011;5624;49.388;11.350;2023-05-20T05:10:53;13.00;;;8.20;;
11139;SDS011;5624;49.388;11.350;2023-05-20T05:13:18;9.47;;;8.23;;
11139;SDS011;5624;49.388;11.350;2023-05-20T05:15:44;11.13;;;9.13;;
11139;SDS011;5624;49.388;11.350;2023-05-20T05:18:09;12.37;;;8.93;;
11139;SDS011;5624;49.388;11.350;2023-05-20T05:20:35;10.73;;;8.40;;
11139;SDS011;5624;49.388;11.350;2023-05-20T05:23:01;11.77;;;9.37;;
11139;SDS011;5624;49.388;11.350;2023-05-20T05:25:26;10.03;;;8.03;;
11139;SDS011;5624;49.388;11.350;2023-05-20T05:27:52;11.73;;;8.90;;
11139;SDS011;5624;49.388;11.350;2023-05-20T05:30:19;12.57;;;8.73;;
11139;SDS011;5624;49.388;11.350;2023-05-20T05:32:46;10.83;;;8.33;;
11139;SDS011;5624;49.388;11.350;2023-05-20T05:35:11;9.93;;;8.20;;
11139;SDS011;5624;49.388;11.350;2023-05-20T05:37:37;9.50;;;7.77;;
11139;SDS011;5624;49.388;11.350;2023-05-20T05:40:02;11.27;;;8.60;;
11139;SDS011;5624;49.388;11.350;2023-05-20T05:42:28;12.27;;;8.07;;
11139;SDS011;5624;49.388;11.350;2023-05-20T05:44:54;9.93;;;8.07;;
11139;SDS011;5624;49.388;11.350;2023-05-20T05:47:20;12.60;;;9.33;;
11139;SDS011;5624;49.388;11.350;2023-05-20T05:49:45;12.07;;;9.17;;
11139;SDS011;5624;49.388;11.350;2023-05-20T05:52:11;10.67;;;7.93;;
11139;SDS011;5624;49.388;11.350;2023-05-20T05:54:37;9.80;;;7.90;;
11139;SDS011;5624;49.388;11.350;2023-05-20T05:57:02;11.23;;;8.63;;
11139;SDS011;5624;49.388;11.350;2023-05-20T05:59:28;11.00;;;8.33;;
11139;SDS011;5624;49.388;11.350;2023-05-20T06:01:54;12.23;;;8.70;;
11139;SDS011;5624;49.388;11.350;2023-05-20T06:04:19;10.43;;;8.30;;
11139;SDS011;5624;49.388;11.350;2023-05-20T06:06:46;10.37;;;8.07;;
11139;SDS011;5624;49.388;11.350;2023-05-20T06:09:12;10.23;;;8.15;;
11139;SDS011;5624;49.388;11.350;2023-05-20T06:11:38;8.80;;;7.70;;
11139;SDS011;5624;49.388;11.350;2023-05-20T06:14:06;11.60;;;7.73;;
11139;SDS011;5624;49.388;11.350;2023-05-20T06:16:31;10.88;;;8.48;;
11139;SDS011;5624;49.388;11.350;2023-05-20T06:18:57;9.70;;;7.07;;
11139;SDS011;5624;49.388;11.350;2023-05-20T06:21:22;8.98;;;7.53;;
11139;SDS011;5624;49.388;11.350;2023-05-20T06:23:48;8.32;;;7.53;;
11139;SDS011;5624;49.388;11.350;2023-05-20T06:26:14;10.27;;;7.88;;
11139;SDS011;5624;49.388;11.350;2023-05-20T06:28:39;8.70;;;7.40;;
11139;SDS011;5624;49.388;11.350;2023-05-20T06:31:05;7.93;;;7.13;;
11139;SDS011;5624;49.388;11.350;2023-05-20T06:33:31;10.55;;;7.45;;
11139;SDS011;5624;49.388;11.350;2023-05-20T06:35:57;10.00;;;8.02;;
11139;SDS011;5624;49.388;11.350;2023-05-20T06:38:23;9.10;;;7.80;;
11139;SDS011;5624;49.388;11.350;2023-05-20T06:40:48;9.77;;;8.32;;
11139;SDS011;5624;49.388;11.350;2023-05-20T06:43:15;8.95;;;7.82;;
11139;SDS011;5624;49.388;11.350;2023-05-20T06:45:40;8.45;;;7.40;;
11139;SDS011;5624;49.388;11.350;2023-05-20T06:48:07;8.75;;;7.00;;
11139;SDS011;5624;49.388;11.350;2023-05-20T06:50:32;8.32;;;7.43;;
11139;SDS011;5624;49.388;11.350;2023-05-20T06:52:58;8.90;;;7.00;;
11139;SDS011;5624;49.388;11.350;2023-05-20T06:55:25;7.65;;;6.85;;
11139;SDS011;5624;49.388;11.350;2023-05-20T06:57:50;7.78;;;6.97;;
11139;SDS011;5624;49.388;11.350;2023-05-20T07:00:16;9.05;;;7.30;;
11139;SDS011;5624;49.388;11.350;2023-05-20T07:02:41;8.80;;;7.38;;
11139;SDS011;5624;49.388;11.350;2023-05-20T07:05:08;9.30;;;7.60;;
11139;SDS011;5624;49.388;11.350;2023-05-20T07:07:33;9.75;;;8.32;;
11139;SDS011;5624;49.388;11.350;2023-05-20T07:09:59;8.32;;;7.43;;
11139;SDS011;5624;49.388;11.350;2023-05-20T07:12:25;7.88;;;7.07;;
11139;SDS011;5624;49.388;11.350;2023-05-20T07:14:52;8.20;;;7.38;;
11139;SDS011;5624;49.388;11.350;2023-05-20T07:17:17;9.50;;;7.57;;
11139;SDS011;5624;49.388;11.350;2023-05-20T07:19:43;9.05;;;7.50;;
11139;SDS011;5624;49.388;11.350;2023-05-20T07:22:08;7.60;;;6.80;;
11139;SDS011;5624;49.388;11.350;2023-05-20T07:24:35;8.40;;;7.10;;
11139;SDS011;5624;49.388;11.350;2023-05-20T07:27:02;9.68;;;7.30;;
11139;SDS011;5624;49.388;11.350;2023-05-20T07:29:28;9.35;;;7.05;;
11139;SDS011;5624;49.388;11.350;2023-05-20T07:31:53;9.05;;;7.70;;
11139;SDS011;5624;49.388;11.350;2023-05-20T07:34:19;8.95;;;7.32;;
11139;SDS011;5624;49.388;11.350;2023-05-20T07:36:44;8.63;;;6.57;;
11139;SDS011;5624;49.388;11.350;2023-05-20T07:39:10;10.05;;;7.55;;
11139;SDS011;5624;49.388;11.350;2023-05-20T07:41:36;11.13;;;7.57;;
11139;SDS011;5624;49.388;11.350;2023-05-20T07:44:03;8.25;;;7.07;;
11139;SDS011;5624;49.388;11.350;2023-05-20T07:46:29;8.27;;;7.47;;
11139;SDS011;5624;49.388;11.350;2023-05-20T07:48:55;8.35;;;7.55;;
11139;SDS011;5624;49.388;11.350;2023-05-20T07:51:21;7.60;;;6.80;;
11139;SDS011;5624;49.388;11.350;2023-05-20T07:53:46;8.27;;;6.88;;
11139;SDS011;5624;49.388;11.350;2023-05-20T07:56:12;8.45;;;6.32;;
11139;SDS011;5624;49.388;11.350;2023-05-20T07:58:39;10.23;;;7.30;;
11139;SDS011;5624;49.388;11.350;2023-05-20T08:01:05;8.23;;;6.65;;
11139;SDS011;5624;49.388;11.350;2023-05-20T08:03:31;9.43;;;7.30;;
11139;SDS011;5624;49.388;11.350;2023-05-20T08:05:57;9.65;;;7.10;;
11139;SDS011;5624;49.388;11.350;2023-05-20T08:08:22;9.10;;;7.15;;
11139;SDS011;5624;49.388;11.350;2023-05-20T08:10:49;9.63;;;6.97;;
11139;SDS011;5624;49.388;11.350;2023-05-20T08:13:15;7.22;;;6.38;;
11139;SDS011;5624;49.388;11.350;2023-05-20T08:15:40;9.50;;;6.78;;
11139;SDS011;5624;49.388;11.350;2023-05-20T08:18:06;8.18;;;7.25;;
11139;SDS011;5624;49.388;11.350;2023-05-20T08:20:32;8.45;;;7.55;;
11139;SDS011;5624;49.388;11.350;2023-05-20T08:22:57;9.05;;;7.57;;
11139;SDS011;5624;49.388;11.350;2023-05-20T08:25:23;8.75;;;7.07;;
11139;SDS011;5624;49.388;11.350;2023-05-20T08:27:48;7.30;;;6.60;;
11139;SDS011;5624;49.388;11.350;2023-05-20T08:30:15;7.53;;;6.32;;
11139;SDS011;5624;49.388;11.350;2023-05-20T08:32:40;9.55;;;6.60;;
11139;SDS011;5624;49.388;11.350;2023-05-20T08:35:06;8.07;;;6.90;;
11139;SDS011;5624;49.388;11.350;2023-05-20T08:37:32;8.07;;;6.80;;
11139;SDS011;5624;49.388;11.350;2023-05-20T08:39:58;10.30;;;6.53;;
11139;SDS011;5624;49.388;11.350;2023-05-20T08:42:24;8.10;;;6.38;;
11139;SDS011;5624;49.388;11.350;2023-05-20T08:44:51;8.35;;;6.32;;
11139;SDS011;5624;49.388;11.350;2023-05-20T08:47:21;7.45;;;6.60;;
11139;SDS011;5624;49.388;11.350;2023-05-20T08:49:47;7.10;;;6.40;;
11139;SDS011;5624;49.388;11.350;2023-05-20T08:52:13;7.35;;;6.65;;
11139;SDS011;5624;49.388;11.350;2023-05-20T08:54:43;8.07;;;6.25;;
11139;SDS011;5624;49.388;11.350;2023-05-20T08:57:10;6.80;;;5.85;;
11139;SDS011;5624;49.388;11.350;2023-05-20T08:59:39;7.82;;;5.70;;
11139;SDS011;5624;49.388;11.350;2023-05-20T09:02:08;8.55;;;6.30;;
11139;SDS011;5624;49.388;11.350;2023-05-20T09:04:35;8.38;;;6.30;;
11139;SDS011;5624;49.388;11.350;2023-05-20T09:07:01;9.65;;;6.50;;
11139;SDS011;5624;49.388;11.350;2023-05-20T09:09:28;7.43;;;6.57;;
11139;SDS011;5624;49.388;11.350;2023-05-20T09:11:54;8.32;;;6.57;;
11139;SDS011;5624;49.388;11.350;2023-05-20T09:14:20;9.00;;;6.65;;
11139;SDS011;5624;49.388;11.350;2023-05-20T09:16:49;11.15;;;6.90;;
11139;SDS011;5624;49.388;11.350;2023-05-20T09:19:15;8.73;;;6.47;;
11139;SDS011;5624;49.388;11.350;2023-05-20T09:21:41;9.20;;;5.90;;
11139;SDS011;5624;49.388;11.350;2023-05-20T09:24:07;7.03;;;6.32;;
11139;SDS011;5624;49.388;11.350;2023-05-20T09:26:33;7.15;;;6.45;;
11139;SDS011;5624;49.388;11.350;2023-05-20T09:28:58;7.63;;;6.13;;
11139;SDS011;5624;49.388;11.350;2023-05-20T09:31:25;6.65;;;5.95;;
11139;SDS011;5624;49.388;11.350;2023-05-20T09:33:52;7.40;;;6.32;;
11139;SDS011;5624;49.388;11.350;2023-05-20T09:36:18;7.75;;;5.82;;
11139;SDS011;5624;49.388;11.350;2023-05-20T09:38:46;7.20;;;6.38;;
11139;SDS011;5624;49.388;11.350;2023-05-20T09:41:17;8.27;;;6.25;;
11139;SDS011;5624;49.388;11.350;2023-05-20T09:43:45;7.80;;;6.25;;
11139;SDS011;5624;49.388;11.350;2023-05-20T09:46:12;6.72;;;5.93;;
11139;SDS011;5624;49.388;11.350;2023-05-20T09:48:39;6.47;;;5.80;;
11139;SDS011;5624;49.388;11.350;2023-05-20T09:51:05;8.55;;;6.38;;
11139;SDS011;5624;49.388;11.350;2023-05-20T09:53:31;8.93;;;6.95;;
11139;SDS011;5624;49.388;11.350;2023-05-20T09:55:57;8.55;;;7.45;;
11139;SDS011;5624;49.388;11.350;2023-05-20T09:58:23;9.55;;;6.72;;
11139;SDS011;5624;49.388;11.350;2023-05-20T10:00:49;8.88;;;6.60;;
11139;SDS011;5624;49.388;11.350;2023-05-20T10:03:16;7.53;;;6.22;;
11139;SDS011;5624;49.388;11.350;2023-05-20T10:05:44;7.63;;;6.90;;
11139;SDS011;5624;49.388;11.350;2023-05-20T10:08:34;8.23;;;6.78;;
11139;SDS011;5624;49.388;11.350;2023-05-20T10:19:02;7.20;;;6.07;;
11139;SDS011;5624;49.388;11.350;2023-05-20T10:21:32;9.43;;;6.93;;
11139;SDS011;5624;49.388;11.350;2023-05-20T10:24:05;7.22;;;6.47;;
11139;SDS011;5624;49.388;11.350;2023-05-20T10:26:39;8.35;;;7.38;;
11139;SDS011;5624;49.388;11.350;2023-05-20T10:29:17;8.63;;;7.63;;
11139;SDS011;5624;49.388;11.350;2023-05-20T10:31:52;7.53;;;6.35;;
11139;SDS011;5624;49.388;11.350;2023-05-20T10:34:19;7.50;;;6.47;;
11139;SDS011;5624;49.388;11.350;2023-05-20T10:39:29;8.00;;;7.15;;
11139;SDS011;5624;49.388;11.350;2023-05-20T10:42:09;7.88;;;6.72;;
11139;SDS011;5624;49.388;11.350;2023-05-20T10:44:44;7.70;;;6.90;;
11139;SDS011;5624;49.388;11.350;2023-05-20T10:47:11;10.15;;;8.18;;
11139;SDS011;5624;49.388;11.350;2023-05-20T10:49:44;9.35;;;7.57;;
11139;SDS011;5624;49.388;11.350;2023-05-20T10:52:10;9.38;;;8.48;;
11139;SDS011;5624;49.388;11.350;2023-05-20T10:54:44;10.60;;;8.23;;
11139;SDS011;5624;49.388;11.350;2023-05-20T10:57:11;10.88;;;7.82;;
11139;SDS011;5624;49.388;11.350;2023-05-20T10:59:36;8.57;;;7.32;;
11139;SDS011;5624;49.388;11.350;2023-05-20T11:02:02;7.50;;;6.78;;
11139;SDS011;5624;49.388;11.350;2023-05-20T11:04:28;9.43;;;7.63;;
11139;SDS011;5624;49.388;11.350;2023-05-20T11:06:54;8.63;;;6.90;;
11139;SDS011;5624;49.388;11.350;2023-05-20T11:09:21;10.18;;;7.55;;
11139;SDS011;5624;49.388;11.350;2023-05-20T11:11:46;8.20;;;7.25;;
11139;SDS011;5624;49.388;11.350;2023-05-20T11:14:13;7.93;;;7.13;;
11139;SDS011;5624;49.388;11.350;2023-05-20T11:16:41;9.07;;;7.00;;
11139;SDS011;5624;49.388;11.350;2023-05-20T11:19:08;10.10;;;7.38;;
11139;SDS011;5624;49.388;11.350;2023-05-20T11:21:43;10.75;;;7.63;;
11139;SDS011;5624;49.388;11.350;2023-05-20T11:24:12;11.15;;;8.25;;
11139;SDS011;5624;49.388;11.350;2023-05-20T11:26:38;8.65;;;7.18;;
11139;SDS011;5624;49.388;11.350;2023-05-20T11:29:04;8.55;;;7.70;;
11139;SDS011;5624;49.388;11.350;2023-05-20T11:31:30;8.32;;;7.53;;
11139;SDS011;5624;49.388;11.350;2023-05-20T11:33:59;10.43;;;7.95;;
11139;SDS011;5624;49.388;11.350;2023-05-20T11:36:25;8.13;;;7.32;;
11139;SDS011;5624;49.388;11.350;2023-05-20T11:38:52;10.57;;;7.93;;
11139;SDS011;5624;49.388;11.350;2023-05-20T11:41:22;8.48;;;7.55;;
11139;SDS011;5624;49.388;11.350;2023-05-20T11:43:54;9.65;;;7.95;;
11139;SDS011;5624;49.388;11.350;2023-05-20T11:46:23;9.23;;;7.57;;
11139;SDS011;5624;49.388;11.350;2023-05-20T11:48:54;8.60;;;7.80;;
11139;SDS011;5624;49.388;11.350;2023-05-20T11:51:22;9.82;;;7.70;;
11139;SDS011;5624;49.388;11.350;2023-05-20T11:53:51;10.30;;;8.15;;
11139;SDS011;5624;49.388;11.350;2023-05-20T11:56:17;9.43;;;7.82;;
11139;SDS011;5624;49.388;11.350;2023-05-20T11:58:44;11.23;;;8.27;;
11139;SDS011;5624;49.388;11.350;2023-05-20T12:01:09;11.23;;;8.20;;
11139;SDS011;5624;49.388;11.350;2023-05-20T12:03:35;9.60;;;8.00;;
11139;SDS011;5624;49.388;11.350;2023-05-20T12:06:01;8.77;;;7.88;;
11139;SDS011;5624;49.388;11.350;2023-05-20T12:08:27;8.75;;;7.88;;
11139;SDS011;5624;49.388;11.350;2023-05-20T12:10:53;8.90;;;7.88;;
11139;SDS011;5624;49.388;11.350;2023-05-20T12:13:18;9.90;;;8.13;;
11139;SDS011;5624;49.388;11.350;2023-05-20T12:15:44;10.48;;;7.68;;
11139;SDS011;5624;49.388;11.350;2023-05-20T12:18:10;10.38;;;9.13;;
11139;SDS011;5624;49.388;11.350;2023-05-20T12:20:35;9.38;;;8.13;;
11139;SDS011;5624;49.388;11.350;2023-05-20T12:23:01;10.20;;;8.07;;
11139;SDS011;5624;49.388;11.350;2023-05-20T12:25:27;8.60;;;7.72;;
11139;SDS011;5624;49.388;11.350;2023-05-20T12:27:54;9.02;;;8.13;;
11139;SDS011;5624;49.388;11.350;2023-05-20T12:30:20;9.02;;;8.15;;
11139;SDS011;5624;49.388;11.350;2023-05-20T12:32:47;9.20;;;8.07;;
11139;SDS011;5624;49.388;11.350;2023-05-20T12:35:15;9.60;;;8.10;;
11139;SDS011;5624;49.388;11.350;2023-05-20T12:37:41;8.10;;;7.30;;
11139;SDS011;5624;49.388;11.350;2023-05-20T12:40:08;9.82;;;8.32;;
11139;SDS011;5624;49.388;11.350;2023-05-20T12:42:35;9.85;;;7.22;;
11139;SDS011;5624;49.388;11.350;2023-05-20T12:45:01;8.73;;;7.90;;
11139;SDS011;5624;49.388;11.350;2023-05-20T12:47:26;9.50;;;7.35;;
11139;SDS011;5624;49.388;11.350;2023-05-20T12:49:52;10.23;;;8.15;;
11139;SDS011;5624;49.388;11.350;2023-05-20T12:52:18;8.65;;;7.60;;
11139;SDS011;5624;49.388;11.350;2023-05-20T12:54:43;9.27;;;7.30;;
11139;SDS011;5624;49.388;11.350;2023-05-20T12:57:09;8.68;;;7.78;;
11139;SDS011;5624;49.388;11.350;2023-05-20T12:59:35;8.60;;;7.70;;
11139;SDS011;5624;49.388;11.350;2023-05-20T13:02:00;12.73;;;8.07;;
11139;SDS011;5624;49.388;11.350;2023-05-20T13:04:26;9.35;;;7.38;;
11139;SDS011;5624;49.388;11.350;2023-05-20T13:06:51;9.75;;;7.95;;
11139;SDS011;5624;49.388;11.350;2023-05-20T13:09:17;8.80;;;7.15;;
11139;SDS011;5624;49.388;11.350;2023-05-20T13:11:43;8.38;;;7.55;;
11139;SDS011;5624;49.388;11.350;2023-05-20T13:14:09;7.40;;;6.60;;
11139;SDS011;5624;49.388;11.350;2023-05-20T13:16:34;10.18;;;6.93;;
11139;SDS011;5624;49.388;11.350;2023-05-20T13:19:00;7.93;;;7.03;;
11139;SDS011;5624;49.388;11.350;2023-05-20T13:21:26;9.38;;;6.95;;
11139;SDS011;5624;49.388;11.350;2023-05-20T13:23:51;8.23;;;6.38;;
11139;SDS011;5624;49.388;11.350;2023-05-20T13:26:17;7.53;;;6.18;;
11139;SDS011;5624;49.388;11.350;2023-05-20T13:28:43;9.45;;;6.97;;
11139;SDS011;5624;49.388;11.350;2023-05-20T13:31:08;8.60;;;7.13;;
11139;SDS011;5624;49.388;11.350;2023-05-20T13:33:34;9.60;;;6.70;;
11139;SDS011;5624;49.388;11.350;2023-05-20T13:35:59;8.13;;;6.78;;
11139;SDS011;5624;49.388;11.350;2023-05-20T13:38:25;6.97;;;6.28;;
11139;SDS011;5624;49.388;11.350;2023-05-20T13:40:51;8.82;;;6.20;;
11139;SDS011;5624;49.388;11.350;2023-05-20T13:43:16;7.45;;;6.50;;
11139;SDS011;5624;49.388;11.350;2023-05-20T13:45:42;7.40;;;6.00;;
11139;SDS011;5624;49.388;11.350;2023-05-20T13:48:08;7.47;;;6.30;;
11139;SDS011;5624;49.388;11.350;2023-05-20T13:50:33;8.63;;;6.60;;
11139;SDS011;5624;49.388;11.350;2023-05-20T13:52:59;5.95;;;5.35;;
11139;SDS011;5624;49.388;11.350;2023-05-20T13:55:25;8.80;;;5.95;;
11139;SDS011;5624;49.388;11.350;2023-05-20T13:57:51;6.50;;;5.90;;
11139;SDS011;5624;49.388;11.350;2023-05-20T14:00:18;6.90;;;5.90;;
11139;SDS011;5624;49.388;11.350;2023-05-20T14:02:44;6.40;;;5.80;;
11139;SDS011;5624;49.388;11.350;2023-05-20T14:05:09;8.32;;;6.15;;
11139;SDS011;5624;49.388;11.350;2023-05-20T14:07:35;9.07;;;6.28;;
11139;SDS011;5624;49.388;11.350;2023-05-20T14:10:01;6.40;;;5.80;;
11139;SDS011;5624;49.388;11.350;2023-05-20T14:12:27;7.88;;;6.32;;
11139;SDS011;5624;49.388;11.350;2023-05-20T14:14:53;8.45;;;5.85;;
11139;SDS011;5624;49.388;11.350;2023-05-20T14:17:18;9.80;;;6.35;;
11139;SDS011;5624;49.388;11.350;2023-05-20T14:19:44;10.65;;;6.80;;
11139;SDS011;5624;49.388;11.350;2023-05-20T14:22:09;6.82;;;6.03;;
11139;SDS011;5624;49.388;11.350;2023-05-20T14:24:38;7.25;;;6.43;;
11139;SDS011;5624;49.388;11.350;2023-05-20T14:27:04;8.35;;;6.40;;
11139;SDS011;5624;49.388;11.350;2023-05-20T14:29:35;8.95;;;6.32;;
11139;SDS011;5624;49.388;11.350;2023-05-20T14:32:01;7.05;;;6.35;;
11139;SDS011;5624;49.388;11.350;2023-05-20T14:34:27;7.88;;;6.65;;
11139;SDS011;5624;49.388;11.350;2023-05-20T14:36:53;7.28;;;6.05;;
11139;SDS011;5624;49.388;11.350;2023-05-20T14:39:19;7.18;;;6.15;;
11139;SDS011;5624;49.388;11.350;2023-05-20T14:41:44;7.80;;;6.65;;
11139;SDS011;5624;49.388;11.350;2023-05-20T14:44:10;8.82;;;6.82;;
11139;SDS011;5624;49.388;11.350;2023-05-20T14:46:36;9.05;;;6.68;;
11139;SDS011;5624;49.388;11.350;2023-05-20T14:49:01;7.00;;;6.30;;
11139;SDS011;5624;49.388;11.350;2023-05-20T14:51:27;7.97;;;6.05;;
11139;SDS011;5624;49.388;11.350;2023-05-20T14:53:52;11.57;;;6.05;;